createdAt,value
2022-08-31T00:02:22.516Z,99845.28
2022-08-31T00:04:50.405Z,99847.44
2022-08-31T00:07:16.918Z,99847.25
2022-08-31T00:09:43.405Z,99846.66
2022-08-31T00:12:09.982Z,99844.53
2022-08-31T00:14:37.056Z,99850.00
2022-08-31T00:17:03.880Z,99836.31
2022-08-31T00:19:30.484Z,99850.84
2022-08-31T00:21:57.004Z,99841.78
2022-08-31T00:24:23.537Z,99843.69
2022-08-31T00:26:50.069Z,99848.34
2022-08-31T00:29:16.611Z,99839.53
2022-08-31T00:31:43.186Z,99837.84
2022-08-31T00:34:09.740Z,99841.63
2022-08-31T00:36:36.296Z,99844.59
2022-08-31T00:39:03.083Z,99842.09
2022-08-31T00:41:31.283Z,99845.06
2022-08-31T00:43:59.930Z,99848.03
2022-08-31T00:46:30.878Z,99841.72
2022-08-31T00:48:57.396Z,99839.19
2022-08-31T00:51:24.277Z,99846.78
2022-08-31T00:53:51.685Z,99846.16
2022-08-31T00:56:18.778Z,99842.22
2022-08-31T00:58:45.778Z,99846.47
2022-08-31T01:01:22.116Z,99844.19
2022-08-31T01:03:48.697Z,99847.38
2022-08-31T01:06:17.133Z,99840.22
2022-08-31T01:08:44.619Z,99840.22
2022-08-31T01:11:11.930Z,99841.28
2022-08-31T01:13:38.567Z,99839.00
2022-08-31T01:16:07.102Z,99834.00
2022-08-31T01:18:34.474Z,99837.78
2022-08-31T01:21:16.291Z,99836.09
2022-08-31T01:23:44.324Z,99839.47
2022-08-31T01:26:13.306Z,99836.09
2022-08-31T01:28:39.930Z,99834.44
2022-08-31T01:31:27.126Z,99841.19
2022-08-31T01:33:53.826Z,99834.25
2022-08-31T01:36:20.659Z,99834.94
2022-08-31T01:38:52.809Z,99832.44
2022-08-31T01:41:20.178Z,99833.72
2022-08-31T01:43:46.697Z,99825.75
2022-08-31T01:46:13.484Z,99827.88
2022-08-31T01:48:41.989Z,99827.88
2022-08-31T01:51:08.693Z,99824.50
2022-08-31T01:53:38.908Z,99826.66
2022-08-31T01:56:11.085Z,99834.47
2022-08-31T01:58:37.571Z,99835.38
2022-08-31T02:01:10.601Z,99832.22
2022-08-31T02:03:51.328Z,99832.66
2022-08-31T02:06:17.901Z,99839.66
2022-08-31T02:08:44.406Z,99832.94
2022-08-31T02:11:10.917Z,99834.88
2022-08-31T02:13:37.761Z,99831.50
2022-08-31T02:16:05.113Z,99844.59
2022-08-31T02:18:32.324Z,99841.22
2022-08-31T02:20:58.903Z,99837.44
2022-08-31T02:23:25.483Z,99833.66
2022-08-31T02:25:52.115Z,99833.66
2022-08-31T02:28:18.990Z,99830.50
2022-08-31T02:30:45.846Z,99830.72
2022-08-31T02:33:12.352Z,99828.47
2022-08-31T02:35:39.277Z,99820.69
2022-08-31T02:38:06.335Z,99839.19
2022-08-31T02:40:35.456Z,99841.31
2022-08-31T02:43:02.038Z,99841.75
2022-08-31T02:45:28.515Z,99837.13
2022-08-31T02:47:55.207Z,99827.50
2022-08-31T02:50:21.767Z,99833.41
2022-08-31T02:52:48.460Z,99833.84
2022-08-31T02:55:15.043Z,99844.41
2022-08-31T02:57:41.642Z,99841.06
2022-08-31T03:00:09.399Z,99839.97
2022-08-31T03:02:35.950Z,99839.81
2022-08-31T03:05:03.899Z,99838.56
2022-08-31T03:07:31.157Z,99832.47
2022-08-31T03:09:58.655Z,99829.16
2022-08-31T03:12:25.244Z,99832.31
2022-08-31T03:14:51.911Z,99841.56
2022-08-31T03:17:18.480Z,99835.25
2022-08-31T03:19:45.261Z,99834.41
2022-08-31T03:22:13.536Z,99832.13
2022-08-31T03:24:40.587Z,99831.50
2022-08-31T03:27:07.284Z,99834.22
2022-08-31T03:29:33.780Z,99833.19
2022-08-31T03:32:01.686Z,99831.94
2022-08-31T03:34:28.192Z,99841.19
2022-08-31T03:36:54.696Z,99841.63
2022-08-31T03:39:21.219Z,99838.25
2022-08-31T03:41:47.806Z,99840.38
2022-08-31T03:44:14.422Z,99845.03
2022-08-31T03:46:44.473Z,99838.69
2022-08-31T03:49:12.488Z,99840.38
2022-08-31T03:51:38.996Z,99845.03
2022-08-31T03:54:05.529Z,99847.97
2022-08-31T03:56:32.370Z,99849.63
2022-08-31T03:58:58.925Z,99853.44
2022-08-31T04:01:25.586Z,99853.84
2022-08-31T04:03:52.137Z,99850.47
2022-08-31T04:06:18.684Z,99852.59
2022-08-31T04:08:45.750Z,99856.56
2022-08-31T04:11:14.085Z,99854.50
2022-08-31T04:13:40.847Z,99858.06
2022-08-31T04:16:10.233Z,99856.38
2022-08-31T04:18:37.663Z,99858.06
2022-08-31T04:21:05.111Z,99859.75
2022-08-31T04:23:31.638Z,99848.84
2022-08-31T04:25:58.219Z,99856.38
2022-08-31T04:28:25.264Z,99852.59
2022-08-31T04:30:52.041Z,99865.22
2022-08-31T04:33:18.752Z,99862.28
2022-08-31T04:35:45.358Z,99865.81
2022-08-31T04:38:12.184Z,99858.06
2022-08-31T04:40:40.174Z,99862.69
2022-08-31T04:43:07.145Z,99858.06
2022-08-31T04:45:33.715Z,99859.75
2022-08-31T04:48:00.240Z,99865.22
2022-08-31T04:50:26.818Z,99866.88
2022-08-31T04:53:03.194Z,99866.44
2022-08-31T04:55:30.796Z,99864.97
2022-08-31T04:57:57.391Z,99863.50
2022-08-31T05:00:24.358Z,99871.88
2022-08-31T05:02:52.839Z,99878.13
2022-08-31T05:05:19.621Z,99864.03
2022-08-31T05:07:46.141Z,99864.22
2022-08-31T05:10:12.818Z,99869.69
2022-08-31T05:12:39.350Z,99867.56
2022-08-31T05:15:06.217Z,99870.03
2022-08-31T05:17:32.731Z,99860.78
2022-08-31T05:19:59.623Z,99865.81
2022-08-31T05:22:26.165Z,99867.91
2022-08-31T05:24:52.780Z,99869.59
2022-08-31T05:27:19.265Z,99867.84
2022-08-31T05:29:45.807Z,99867.84
2022-08-31T05:32:12.499Z,99875.44
2022-08-31T05:34:39.518Z,99875.44
2022-08-31T05:37:05.988Z,99880.31
2022-08-31T05:39:33.411Z,99883.00
2022-08-31T05:42:00.085Z,99884.41
2022-08-31T05:44:28.874Z,99881.28
2022-08-31T05:46:57.573Z,99885.50
2022-08-31T05:49:30.774Z,99891.34
2022-08-31T05:51:59.663Z,99887.81
2022-08-31T05:54:26.251Z,99884.25
2022-08-31T05:56:52.753Z,99895.41
2022-08-31T05:59:19.480Z,99894.50
2022-08-31T06:01:46.035Z,99895.13
2022-08-31T06:04:13.303Z,99895.91
2022-08-31T06:06:39.934Z,99896.97
2022-08-31T06:09:07.342Z,99893.81
2022-08-31T06:11:34.909Z,99894.59
2022-08-31T06:14:02.725Z,99896.75
2022-08-31T06:16:30.335Z,99899.19
2022-08-31T06:18:57.756Z,99899.19
2022-08-31T06:21:31.086Z,99898.75
2022-08-31T06:23:58.243Z,99896.22
2022-08-31T06:26:26.180Z,99900.38
2022-08-31T06:28:53.903Z,99884.69
2022-08-31T06:31:29.916Z,99893.41
2022-08-31T06:33:57.393Z,99890.97
2022-08-31T06:36:25.323Z,99893.75
2022-08-31T06:38:52.826Z,99904.13
2022-08-31T06:41:24.063Z,99896.69
2022-08-31T06:43:50.779Z,99895.13
2022-08-31T06:46:18.408Z,99899.28
2022-08-31T06:48:45.067Z,99900.91
2022-08-31T06:51:12.417Z,99900.84
2022-08-31T06:53:42.793Z,99904.41
2022-08-31T06:56:20.414Z,99900.97
2022-08-31T06:58:49.361Z,99902.66
2022-08-31T07:01:35.813Z,99902.97
2022-08-31T07:04:08.368Z,99898.84
2022-08-31T07:06:36.811Z,99904.63
2022-08-31T07:09:04.559Z,99900.31
2022-08-31T07:11:35.514Z,99894.75
2022-08-31T07:14:02.413Z,99898.84
2022-08-31T07:16:29.448Z,99897.94
2022-08-31T07:18:58.206Z,99899.94
2022-08-31T07:21:25.292Z,99902.50
2022-08-31T07:23:52.412Z,99895.66
2022-08-31T07:26:24.784Z,99896.50
2022-08-31T07:28:57.627Z,99896.28
2022-08-31T07:31:26.203Z,99896.41
2022-08-31T07:33:55.760Z,99898.81
2022-08-31T07:36:23.147Z,99897.75
2022-08-31T07:39:08.561Z,99889.59
2022-08-31T07:41:53.795Z,99890.28
2022-08-31T07:44:21.116Z,99893.63
2022-08-31T07:46:55.351Z,99902.31
2022-08-31T07:49:23.131Z,99897.06
2022-08-31T07:51:53.349Z,99892.84
2022-08-31T07:54:22.395Z,99897.72
2022-08-31T07:56:50.139Z,99892.59
2022-08-31T07:59:20.929Z,99892.59
2022-08-31T08:01:48.483Z,99899.75
2022-08-31T08:04:21.829Z,99898.28
2022-08-31T08:06:48.922Z,99892.63
2022-08-31T08:09:24.473Z,99896.28
2022-08-31T08:12:01.218Z,99892.72
2022-08-31T08:14:30.297Z,99890.47
2022-08-31T08:16:57.023Z,99889.56
2022-08-31T08:19:23.561Z,99890.69
2022-08-31T08:21:50.986Z,99887.88
2022-08-31T08:24:18.124Z,99890.25
2022-08-31T08:26:46.143Z,99891.84
2022-08-31T08:29:13.020Z,99886.56
2022-08-31T08:31:39.978Z,99886.44
2022-08-31T08:34:06.880Z,99888.88
2022-08-31T08:36:35.983Z,99893.50
2022-08-31T08:39:04.225Z,99880.19
2022-08-31T08:41:32.357Z,99887.88
2022-08-31T08:44:00.880Z,99885.00
2022-08-31T08:46:57.360Z,99880.78
2022-08-31T08:49:42.316Z,99876.53
2022-08-31T08:52:14.784Z,99878.81
2022-08-31T08:54:43.917Z,99874.38
2022-08-31T08:57:14.297Z,99874.81
2022-08-31T08:59:44.493Z,99868.31
2022-08-31T09:02:15.199Z,99871.63
2022-08-31T09:04:44.818Z,99862.06
2022-08-31T09:07:23.109Z,99854.13
2022-08-31T09:09:49.645Z,99860.81
2022-08-31T09:12:39.219Z,99860.53
2022-08-31T09:15:26.725Z,99848.75
2022-08-31T09:18:09.359Z,99858.47
2022-08-31T09:20:35.886Z,99855.97
2022-08-31T09:23:08.051Z,99851.72
2022-08-31T09:25:37.466Z,99843.91
2022-08-31T09:28:07.523Z,99845.28
2022-08-31T09:30:52.161Z,99843.06
2022-08-31T09:33:21.071Z,99837.09
2022-08-31T09:35:55.761Z,99830.81
2022-08-31T09:38:40.268Z,99834.94
2022-08-31T09:41:32.805Z,99828.56
2022-08-31T09:44:21.593Z,99819.72
2022-08-31T09:46:50.378Z,99822.28
2022-08-31T09:49:21.012Z,99819.69
2022-08-31T09:51:48.588Z,99817.53
2022-08-31T09:54:33.728Z,99817.28
2022-08-31T09:57:02.580Z,99814.41
2022-08-31T09:59:38.430Z,99811.38
2022-08-31T10:02:10.746Z,99800.66
2022-08-31T10:04:47.937Z,99795.63
2022-08-31T10:07:17.524Z,99789.16
2022-08-31T10:09:57.788Z,99787.50
2022-08-31T10:12:32.412Z,99782.25
2022-08-31T10:15:04.181Z,99789.97
2022-08-31T10:17:49.107Z,99788.56
2022-08-31T10:20:21.710Z,99786.28
2022-08-31T10:22:50.432Z,99782.88
2022-08-31T10:25:22.944Z,99785.84
2022-08-31T10:27:58.658Z,99780.56
2022-08-31T10:30:29.115Z,99782.72
2022-08-31T10:32:55.848Z,99774.41
2022-08-31T10:35:26.549Z,99768.19
2022-08-31T10:37:55.035Z,99767.91
2022-08-31T10:40:26.989Z,99765.19
2022-08-31T10:43:14.148Z,99761.34
2022-08-31T10:45:43.414Z,99756.06
2022-08-31T10:48:12.786Z,99761.25
2022-08-31T10:50:58.274Z,99743.03
2022-08-31T10:53:32.715Z,99742.19
2022-08-31T10:56:14.888Z,99735.84
2022-08-31T10:58:44.232Z,99734.66
2022-08-31T11:01:18.164Z,99740.84
2022-08-31T11:04:04.970Z,99730.94
2022-08-31T11:06:41.690Z,99736.56
2022-08-31T11:09:19.414Z,99737.94
2022-08-31T11:11:48.532Z,99733.94
2022-08-31T11:14:27.124Z,99741.31
2022-08-31T11:16:56.390Z,99735.09
2022-08-31T11:19:26.218Z,99729.16
2022-08-31T11:22:28.681Z,99737.16
2022-08-31T11:25:04.696Z,99730.31
2022-08-31T11:27:52.545Z,99730.44
2022-08-31T11:30:29.171Z,99735.00
2022-08-31T11:32:57.563Z,99732.88
2022-08-31T11:36:17.369Z,99733.72
2022-08-31T11:39:12.921Z,99725.66
2022-08-31T11:41:48.199Z,99727.63
2022-08-31T11:44:34.221Z,99714.31
2022-08-31T11:47:14.585Z,99710.31
2022-08-31T11:49:41.022Z,99713.47
2022-08-31T11:52:13.542Z,99710.63
2022-08-31T11:54:42.801Z,99702.78
2022-08-31T11:57:13.119Z,99711.81
2022-08-31T11:59:41.986Z,99692.06
2022-08-31T12:02:20.412Z,99700.22
2022-08-31T12:04:52.236Z,99699.97
2022-08-31T12:07:24.930Z,99698.31
2022-08-31T12:09:52.108Z,99692.56
2022-08-31T12:12:19.695Z,99691.38
2022-08-31T12:14:56.803Z,99682.19
2022-08-31T12:17:27.589Z,99686.59
2022-08-31T12:20:06.178Z,99681.50
2022-08-31T12:23:06.440Z,99677.66
2022-08-31T12:25:36.382Z,99675.09
2022-08-31T12:28:10.877Z,99672.81
2022-08-31T12:30:47.478Z,99665.19
2022-08-31T12:33:19.766Z,99668.44
2022-08-31T12:35:49.593Z,99672.28
2022-08-31T12:38:34.007Z,99668.09
2022-08-31T12:41:00.631Z,99664.28
2022-08-31T12:43:49.019Z,99661.31
2022-08-31T12:46:32.616Z,99656.47
2022-08-31T12:49:02.134Z,99657.97
2022-08-31T12:51:37.507Z,99656.09
2022-08-31T12:54:22.937Z,99653.81
2022-08-31T12:56:49.482Z,99654.28
2022-08-31T12:59:22.033Z,99649.03
2022-08-31T13:01:49.882Z,99646.22
2022-08-31T13:04:18.502Z,99643.25
2022-08-31T13:06:48.233Z,99645.34
2022-08-31T13:09:26.269Z,99645.16
2022-08-31T13:11:54.370Z,99640.09
2022-08-31T13:14:26.878Z,99635.72
2022-08-31T13:16:55.697Z,99636.16
2022-08-31T13:19:25.977Z,99636.94
2022-08-31T13:21:55.237Z,99633.69
2022-08-31T13:24:28.983Z,99629.09
2022-08-31T13:27:25.585Z,99628.66
2022-08-31T13:29:53.522Z,99620.94
2022-08-31T13:32:33.283Z,99625.31
2022-08-31T13:35:08.342Z,99632.94
2022-08-31T13:37:38.708Z,99637.31
2022-08-31T13:40:06.848Z,99645.66
2022-08-31T13:42:41.605Z,99649.00
2022-08-31T13:45:29.297Z,99641.97
2022-08-31T13:48:05.595Z,99637.56
2022-08-31T13:50:47.734Z,99645.72
2022-08-31T13:53:39.858Z,99648.94
2022-08-31T13:56:43.222Z,99643.63
2022-08-31T13:59:17.105Z,99632.31
2022-08-31T14:02:06.708Z,99634.47
2022-08-31T14:04:48.406Z,99633.56
2022-08-31T14:07:26.973Z,99631.31
2022-08-31T14:09:53.485Z,99618.44
2022-08-31T14:12:36.791Z,99627.16
2022-08-31T14:15:15.348Z,99630.91
2022-08-31T14:18:23.810Z,99636.16
2022-08-31T14:20:36.523Z,99638.50
2022-08-31T14:23:17.939Z,99644.19
2022-08-31T14:25:44.450Z,99636.81
2022-08-31T14:28:11.482Z,99621.94
2022-08-31T14:30:38.252Z,99623.13
2022-08-31T14:33:11.942Z,99623.91
2022-08-31T14:35:40.145Z,99616.78
2022-08-31T14:38:06.623Z,99607.69
2022-08-31T14:40:33.187Z,99606.97
2022-08-31T14:42:59.738Z,99608.72
2022-08-31T14:45:26.290Z,99605.84
2022-08-31T14:47:52.846Z,99612.44
2022-08-31T14:50:25.617Z,99603.13
2022-08-31T14:52:58.480Z,99612.84
2022-08-31T14:55:26.228Z,99607.84
2022-08-31T14:57:58.273Z,99608.41
2022-08-31T15:00:25.467Z,99595.94
2022-08-31T15:02:56.724Z,99606.84
2022-08-31T15:05:24.692Z,99607.13
2022-08-31T15:07:53.064Z,99605.16
2022-08-31T15:10:20.840Z,99615.88
2022-08-31T15:12:48.734Z,99622.78
2022-08-31T15:15:20.470Z,99624.63
2022-08-31T15:17:49.158Z,99621.53
2022-08-31T15:20:16.806Z,99620.59
2022-08-31T15:22:43.457Z,99605.66
2022-08-31T15:25:12.873Z,99609.38
2022-08-31T15:27:41.639Z,99606.94
2022-08-31T15:30:08.632Z,99615.63
2022-08-31T15:32:39.807Z,99614.19
2022-08-31T15:35:06.637Z,99612.16
2022-08-31T15:37:33.205Z,99614.09
2022-08-31T15:40:01.601Z,99613.88
2022-08-31T15:42:29.688Z,99616.22
2022-08-31T15:44:56.905Z,99612.00
2022-08-31T15:47:44.471Z,99612.03
2022-08-31T15:50:11.088Z,99611.22
2022-08-31T15:52:45.750Z,99615.38
2022-08-31T15:55:26.449Z,99604.56
2022-08-31T15:57:54.423Z,99599.31
2022-08-31T16:00:23.591Z,99602.94
2022-08-31T16:02:52.823Z,99597.50
2022-08-31T16:05:19.971Z,99596.81
2022-08-31T16:07:46.481Z,99592.53
2022-08-31T16:10:15.631Z,99591.47
2022-08-31T16:12:45.869Z,99595.25
2022-08-31T16:15:15.407Z,99599.22
2022-08-31T16:17:41.940Z,99595.53
2022-08-31T16:20:09.201Z,99596.81
2022-08-31T16:22:36.841Z,99597.72
2022-08-31T16:25:06.603Z,99590.16
2022-08-31T16:27:34.079Z,99590.50
2022-08-31T16:30:00.585Z,99589.66
2022-08-31T16:32:27.733Z,99585.28
2022-08-31T16:34:54.877Z,99581.59
2022-08-31T16:37:21.351Z,99586.22
2022-08-31T16:39:47.889Z,99585.75
2022-08-31T16:42:14.492Z,99592.69
2022-08-31T16:44:43.746Z,99586.88
2022-08-31T16:47:10.966Z,99580.06
2022-08-31T16:49:40.491Z,99579.00
2022-08-31T16:52:10.978Z,99587.56
2022-08-31T16:54:48.270Z,99580.91
2022-08-31T16:57:16.703Z,99576.13
2022-08-31T16:59:44.319Z,99581.31
2022-08-31T17:02:12.418Z,99589.56
2022-08-31T17:04:51.970Z,99589.81
2022-08-31T17:07:18.979Z,99589.97
2022-08-31T17:09:45.850Z,99592.13
2022-08-31T17:12:14.312Z,99595.91
2022-08-31T17:14:46.576Z,99593.66
2022-08-31T17:17:14.301Z,99596.91
2022-08-31T17:19:42.420Z,99596.59
2022-08-31T17:22:16.920Z,99595.69
2022-08-31T17:24:46.780Z,99603.63
2022-08-31T17:27:15.151Z,99601.63
2022-08-31T17:29:47.688Z,99597.13
2022-08-31T17:32:16.477Z,99596.47
2022-08-31T17:34:43.224Z,99609.59
2022-08-31T17:37:13.141Z,99607.88
2022-08-31T17:39:40.484Z,99610.03
2022-08-31T17:42:07.218Z,99609.94
2022-08-31T17:44:34.672Z,99613.75
2022-08-31T17:47:02.101Z,99618.13
2022-08-31T17:49:29.426Z,99621.31
2022-08-31T17:52:03.622Z,99620.66
2022-08-31T17:54:32.803Z,99623.38
2022-08-31T17:57:00.826Z,99618.38
2022-08-31T17:59:30.717Z,99624.44
2022-08-31T18:01:59.202Z,99627.72
2022-08-31T18:04:26.261Z,99616.69
2022-08-31T18:06:55.124Z,99635.41
2022-08-31T18:09:23.065Z,99630.41
2022-08-31T18:11:49.873Z,99639.75
2022-08-31T18:14:17.463Z,99633.16
2022-08-31T18:16:45.116Z,99640.25
2022-08-31T18:19:11.730Z,99646.78
2022-08-31T18:21:38.250Z,99654.47
2022-08-31T18:24:09.255Z,99650.00
2022-08-31T18:26:42.400Z,99651.06
2022-08-31T18:29:14.884Z,99663.66
2022-08-31T18:31:44.587Z,99672.38
2022-08-31T18:34:18.062Z,99672.06
2022-08-31T18:36:45.817Z,99669.81
2022-08-31T18:39:13.928Z,99683.81
2022-08-31T18:41:58.867Z,99694.25
2022-08-31T18:44:43.775Z,99691.88
2022-08-31T18:47:12.866Z,99697.72
2022-08-31T18:49:43.098Z,99696.41
2022-08-31T18:52:15.877Z,99683.53
2022-08-31T18:54:42.981Z,99688.38
2022-08-31T18:57:09.612Z,99688.53
2022-08-31T18:59:36.728Z,99690.25
2022-08-31T19:02:03.494Z,99690.13
2022-08-31T19:04:30.944Z,99686.13
2022-08-31T19:06:58.202Z,99683.28
2022-08-31T19:09:25.096Z,99673.78
2022-08-31T19:11:51.759Z,99677.41
2022-08-31T19:14:19.699Z,99683.88
2022-08-31T19:16:47.291Z,99677.19
2022-08-31T19:19:20.440Z,99673.41
2022-08-31T19:21:46.920Z,99676.22
2022-08-31T19:24:15.359Z,99676.66
2022-08-31T19:26:44.524Z,99672.50
2022-08-31T19:29:14.248Z,99670.84
2022-08-31T19:31:45.890Z,99668.09
2022-08-31T19:34:13.732Z,99658.78
2022-08-31T19:36:40.870Z,99657.00
2022-08-31T19:39:10.789Z,99654.16
2022-08-31T19:41:49.387Z,99646.28
2022-08-31T19:44:16.636Z,99652.25
2022-08-31T19:46:52.475Z,99652.75
2022-08-31T19:49:19.378Z,99644.41
2022-08-31T19:51:51.848Z,99647.50
2022-08-31T19:54:19.674Z,99643.59
2022-08-31T19:56:46.558Z,99644.63
2022-08-31T19:59:18.180Z,99641.31
2022-08-31T20:01:47.672Z,99638.31
2022-08-31T20:04:17.049Z,99639.38
2022-08-31T20:06:45.384Z,99636.53
2022-08-31T20:09:12.316Z,99634.84
2022-08-31T20:11:39.464Z,99631.38
2022-08-31T20:14:06.375Z,99627.44
2022-08-31T20:16:34.505Z,99620.28
2022-08-31T20:19:01.378Z,99613.63
2022-08-31T20:21:31.095Z,99633.53
2022-08-31T20:24:01.598Z,99627.69
2022-08-31T20:26:33.186Z,99625.03
2022-08-31T20:29:06.773Z,99624.56
2022-08-31T20:31:33.340Z,99614.06
2022-08-31T20:33:59.963Z,99608.13
2022-08-31T20:36:29.133Z,99612.75
2022-08-31T20:38:57.394Z,99605.22
2022-08-31T20:41:24.826Z,99603.59
2022-08-31T20:43:51.316Z,99615.72
2022-08-31T20:46:36.324Z,99608.59
2022-08-31T20:49:21.528Z,99600.63
2022-08-31T20:51:48.097Z,99599.75
2022-08-31T20:54:14.654Z,99595.13
2022-08-31T20:56:41.119Z,99592.00
2022-08-31T20:59:10.301Z,99590.72
2022-08-31T21:01:37.835Z,99592.63
2022-08-31T21:04:05.351Z,99589.66
2022-08-31T21:06:34.745Z,99581.66
2022-08-31T21:09:02.800Z,99579.16
2022-08-31T21:11:29.500Z,99576.66
2022-08-31T21:13:55.994Z,99576.66
2022-08-31T21:16:22.538Z,99585.94
2022-08-31T21:18:49.794Z,99583.78
2022-08-31T21:21:17.569Z,99579.41
2022-08-31T21:23:47.665Z,99578.78
2022-08-31T21:26:21.490Z,99571.66
2022-08-31T21:28:52.427Z,99575.47
2022-08-31T21:31:29.030Z,99577.13
2022-08-31T21:34:00.734Z,99570.81
2022-08-31T21:36:27.942Z,99567.22
2022-08-31T21:38:55.249Z,99563.28
2022-08-31T21:41:23.157Z,99555.19
2022-08-31T21:43:49.842Z,99560.91
2022-08-31T21:46:21.407Z,99560.91
2022-08-31T21:48:48.354Z,99566.84
2022-08-31T21:51:25.766Z,99569.00
2022-08-31T21:53:56.508Z,99567.78
2022-08-31T21:56:24.010Z,99560.66
2022-08-31T21:58:51.000Z,99560.66
2022-08-31T22:01:20.722Z,99560.66
2022-08-31T22:03:48.080Z,99559.00
2022-08-31T22:06:22.065Z,99555.66
2022-08-31T22:08:54.679Z,99552.28
2022-08-31T22:11:23.019Z,99546.44
2022-08-31T22:13:51.956Z,99546.09
2022-08-31T22:16:19.959Z,99546.09
2022-08-31T22:19:01.394Z,99543.56
2022-08-31T22:21:30.450Z,99546.56
2022-08-31T22:23:58.784Z,99546.56
2022-08-31T22:26:27.208Z,99537.25
2022-08-31T22:28:54.134Z,99544.88
2022-08-31T22:31:21.448Z,99544.41
2022-08-31T22:33:52.059Z,99543.56
2022-08-31T22:36:30.861Z,99546.56
2022-08-31T22:38:59.380Z,99545.69
2022-08-31T22:41:25.865Z,99550.34
2022-08-31T22:43:52.327Z,99546.56
2022-08-31T22:46:20.355Z,99548.19
2022-08-31T22:48:47.596Z,99537.25
2022-08-31T22:51:14.850Z,99550.69
2022-08-31T22:53:42.284Z,99548.81
2022-08-31T22:56:20.372Z,99540.59
2022-08-31T22:58:47.198Z,99545.22
2022-08-31T23:01:18.236Z,99540.59
2022-08-31T23:03:46.103Z,99548.19
2022-08-31T23:06:12.667Z,99544.88
2022-08-31T23:08:39.758Z,99543.19
2022-08-31T23:11:06.351Z,99547.00
2022-08-31T23:13:51.495Z,99550.81
2022-08-31T23:16:26.660Z,99552.50
2022-08-31T23:18:57.630Z,99550.81
2022-08-31T23:21:25.079Z,99550.00
2022-08-31T23:23:53.131Z,99548.06
2022-08-31T23:26:21.101Z,99550.81
2022-08-31T23:28:47.596Z,99544.50
2022-08-31T23:31:14.156Z,99547.00
2022-08-31T23:33:40.709Z,99550.34
2022-08-31T23:36:08.221Z,99552.03
2022-08-31T23:38:34.808Z,99550.34
2022-08-31T23:41:01.297Z,99557.50
2022-08-31T23:43:29.002Z,99547.00
2022-08-31T23:46:04.597Z,99548.66
2022-08-31T23:48:31.126Z,99548.19
2022-08-31T23:50:57.622Z,99551.56
2022-08-31T23:53:28.092Z,99541.06
2022-08-31T23:55:54.580Z,99536.06
2022-08-31T23:58:21.311Z,99537.72
